createdAt,value
2023-05-31T00:01:06.918Z,2.60
2023-05-31T00:03:36.862Z,2.70
2023-05-31T00:06:06.568Z,3.20
2023-05-31T00:08:33.378Z,3.10
2023-05-31T00:11:00.644Z,3.00
2023-05-31T00:13:27.671Z,3.10
2023-05-31T00:15:54.525Z,2.90
2023-05-31T00:18:21.551Z,3.10
2023-05-31T00:20:48.545Z,2.80
2023-05-31T00:23:15.603Z,3.10
2023-05-31T00:25:42.646Z,3.00
2023-05-31T00:28:09.467Z,2.90
2023-05-31T00:30:36.359Z,2.70
2023-05-31T00:33:03.140Z,3.20
2023-05-31T00:35:29.915Z,3.50
2023-05-31T00:37:56.730Z,3.00
2023-05-31T00:40:24.708Z,3.30
2023-05-31T00:42:51.714Z,4.30
2023-05-31T00:45:18.766Z,3.40
2023-05-31T00:47:45.768Z,3.20
2023-05-31T00:50:13.200Z,3.20
2023-05-31T00:52:40.758Z,3.60
2023-05-31T00:55:08.287Z,3.60
2023-05-31T00:57:35.228Z,3.60
2023-05-31T01:00:02.116Z,3.70
2023-05-31T01:02:29.220Z,3.40
2023-05-31T01:04:56.523Z,2.90
2023-05-31T01:07:23.555Z,3.10
2023-05-31T01:09:51.446Z,3.70
2023-05-31T01:12:28.817Z,3.40
2023-05-31T01:14:58.568Z,3.70
2023-05-31T01:17:35.795Z,3.70
2023-05-31T01:20:05.708Z,3.60
2023-05-31T01:23:03.832Z,2.90
2023-05-31T01:25:52.291Z,4.40
2023-05-31T01:28:19.974Z,3.90
2023-05-31T01:30:48.684Z,3.70
2023-05-31T01:33:16.292Z,4.10
2023-05-31T01:35:43.104Z,4.10
2023-05-31T01:38:09.962Z,4.60
2023-05-31T01:40:37.082Z,4.40
2023-05-31T01:43:05.276Z,4.70
2023-05-31T01:45:32.755Z,4.90
2023-05-31T01:48:02.745Z,4.60
2023-05-31T01:50:37.027Z,4.80
2023-05-31T01:53:05.183Z,4.60
2023-05-31T01:55:32.306Z,4.30
2023-05-31T01:57:59.252Z,4.70
2023-05-31T02:00:27.124Z,4.70
2023-05-31T02:02:54.891Z,5.10
2023-05-31T02:05:22.873Z,4.60
2023-05-31T02:07:49.838Z,5.30
2023-05-31T02:10:17.937Z,4.70
2023-05-31T02:12:44.877Z,4.60
2023-05-31T02:15:14.211Z,4.90
2023-05-31T02:17:45.077Z,5.20
2023-05-31T02:20:15.708Z,5.30
2023-05-31T02:22:46.477Z,5.10
2023-05-31T02:25:15.087Z,5.30
2023-05-31T02:27:42.811Z,5.10
2023-05-31T02:30:10.964Z,4.70
2023-05-31T02:32:39.176Z,5.20
2023-05-31T02:35:07.968Z,5.50
2023-05-31T02:37:35.798Z,5.10
2023-05-31T02:40:08.715Z,5.40
2023-05-31T02:42:36.906Z,6.10
2023-05-31T02:45:06.697Z,6.00
2023-05-31T02:47:33.834Z,5.90
2023-05-31T02:50:00.943Z,5.50
2023-05-31T02:52:27.752Z,5.00
2023-05-31T02:54:54.726Z,6.10
2023-05-31T02:57:21.785Z,6.70
2023-05-31T02:59:50.494Z,6.60
2023-05-31T03:02:17.351Z,6.00
2023-05-31T03:04:44.268Z,6.40
2023-05-31T03:07:11.414Z,6.00
2023-05-31T03:09:40.757Z,6.10
2023-05-31T03:12:08.385Z,6.50
2023-05-31T03:14:35.341Z,7.00
2023-05-31T03:17:02.392Z,6.10
2023-05-31T03:19:30.090Z,6.70
2023-05-31T03:21:57.218Z,6.50
2023-05-31T03:24:24.269Z,6.50
2023-05-31T03:26:51.647Z,7.20
2023-05-31T03:29:18.673Z,6.00
2023-05-31T03:31:45.843Z,6.80
2023-05-31T03:34:13.083Z,6.40
2023-05-31T03:36:39.939Z,5.90
2023-05-31T03:39:09.031Z,7.50
2023-05-31T03:41:36.392Z,6.80
2023-05-31T03:44:03.290Z,7.30
2023-05-31T03:46:30.539Z,7.10
2023-05-31T03:48:59.907Z,6.50
2023-05-31T03:51:26.974Z,6.60
2023-05-31T03:53:53.910Z,6.70
2023-05-31T03:56:22.207Z,7.00
2023-05-31T03:58:49.450Z,7.00
2023-05-31T04:01:17.207Z,7.30
2023-05-31T04:03:44.790Z,6.80
2023-05-31T04:06:11.930Z,6.90
2023-05-31T04:08:38.978Z,6.70
2023-05-31T04:11:06.343Z,6.80
2023-05-31T04:13:36.470Z,7.90
2023-05-31T04:16:06.065Z,7.90
2023-05-31T04:18:33.168Z,7.10
2023-05-31T04:21:00.387Z,7.50
2023-05-31T04:23:27.396Z,8.30
2023-05-31T04:25:54.263Z,7.10
2023-05-31T04:28:21.792Z,7.80
2023-05-31T04:30:48.637Z,6.60
2023-05-31T04:33:18.792Z,7.50
2023-05-31T04:35:45.969Z,8.60
2023-05-31T04:38:13.275Z,8.20
2023-05-31T04:40:42.119Z,7.70
2023-05-31T04:43:09.684Z,7.90
2023-05-31T04:45:37.796Z,8.70
2023-05-31T04:48:07.994Z,8.20
2023-05-31T04:50:34.961Z,8.20
2023-05-31T04:53:01.893Z,8.10
2023-05-31T04:55:28.751Z,8.30
2023-05-31T04:57:55.847Z,8.30
2023-05-31T05:00:22.803Z,8.40
2023-05-31T05:02:49.810Z,8.60
2023-05-31T05:05:17.415Z,9.10
2023-05-31T05:07:44.646Z,9.20
2023-05-31T05:10:13.700Z,9.40
2023-05-31T05:12:40.564Z,8.80
2023-05-31T05:15:08.799Z,9.20
2023-05-31T05:17:35.546Z,9.90
2023-05-31T05:20:02.592Z,9.80
2023-05-31T05:22:29.420Z,9.40
2023-05-31T05:24:56.434Z,9.30
2023-05-31T05:27:25.800Z,9.20
2023-05-31T05:29:52.661Z,9.00
2023-05-31T05:32:19.568Z,9.70
2023-05-31T05:34:47.477Z,9.40
2023-05-31T05:37:17.459Z,9.50
2023-05-31T05:39:44.265Z,9.20
2023-05-31T05:42:11.216Z,9.60
2023-05-31T05:44:38.049Z,10.20
2023-05-31T05:47:05.439Z,10.30
2023-05-31T05:49:32.416Z,8.70
2023-05-31T05:51:59.271Z,8.70
2023-05-31T05:54:26.058Z,8.30
2023-05-31T05:56:52.832Z,8.40
2023-05-31T05:59:19.702Z,9.10
2023-05-31T06:01:47.397Z,9.70
2023-05-31T06:04:14.321Z,9.00
2023-05-31T06:06:41.573Z,8.50
2023-05-31T06:09:08.934Z,8.40
2023-05-31T06:11:36.196Z,7.90
2023-05-31T06:14:02.982Z,7.90
2023-05-31T06:16:29.864Z,8.80
2023-05-31T06:18:56.768Z,8.70
2023-05-31T06:21:23.544Z,8.70
2023-05-31T06:23:50.422Z,9.10
2023-05-31T06:26:17.247Z,9.10
2023-05-31T06:28:47.129Z,8.30
2023-05-31T06:31:13.970Z,7.90
2023-05-31T06:33:40.848Z,7.80
2023-05-31T06:36:08.456Z,7.70
2023-05-31T06:38:35.400Z,8.10
2023-05-31T06:41:02.503Z,8.30
2023-05-31T06:43:29.559Z,8.30
2023-05-31T06:45:56.355Z,7.80
2023-05-31T06:48:23.321Z,9.10
2023-05-31T06:50:50.571Z,8.30
2023-05-31T06:53:17.496Z,8.00
2023-05-31T06:55:44.436Z,8.20
2023-05-31T06:58:13.784Z,7.90
2023-05-31T07:00:41.097Z,8.30
2023-05-31T07:03:08.145Z,8.20
2023-05-31T07:05:35.533Z,8.50
2023-05-31T07:08:02.503Z,7.20
2023-05-31T07:10:30.215Z,7.20
2023-05-31T07:12:57.081Z,7.10
2023-05-31T07:15:24.220Z,7.70
2023-05-31T07:17:51.247Z,7.70
2023-05-31T07:20:18.444Z,7.20
2023-05-31T07:22:47.764Z,7.60
2023-05-31T07:25:14.639Z,7.70
2023-05-31T07:27:41.922Z,7.80
2023-05-31T07:30:09.355Z,7.30
2023-05-31T07:32:36.393Z,7.10
2023-05-31T07:35:04.801Z,7.40
2023-05-31T07:37:32.099Z,7.40
2023-05-31T07:39:59.733Z,7.30
2023-05-31T07:42:26.650Z,7.50
2023-05-31T07:44:54.619Z,6.50
2023-05-31T07:47:21.928Z,6.80
2023-05-31T07:49:50.926Z,6.30
2023-05-31T07:52:22.842Z,6.90
2023-05-31T07:54:50.409Z,6.70
2023-05-31T07:57:17.876Z,6.80
2023-05-31T07:59:47.329Z,6.20
2023-05-31T08:02:14.400Z,6.00
2023-05-31T08:04:41.533Z,6.30
2023-05-31T08:07:08.464Z,7.80
2023-05-31T08:09:35.735Z,6.20
2023-05-31T08:12:04.096Z,6.50
2023-05-31T08:14:31.070Z,6.20
2023-05-31T08:16:58.384Z,6.10
2023-05-31T08:19:25.281Z,6.70
2023-05-31T08:21:53.169Z,6.40
2023-05-31T08:24:20.087Z,6.40
2023-05-31T08:26:47.092Z,5.50
2023-05-31T08:29:13.933Z,4.70
2023-05-31T08:31:41.357Z,6.10
2023-05-31T08:34:08.291Z,5.00
2023-05-31T08:36:35.808Z,5.20
2023-05-31T08:39:04.712Z,5.10
2023-05-31T08:41:36.625Z,5.10
2023-05-31T08:44:04.243Z,5.20
2023-05-31T08:46:32.214Z,5.20
2023-05-31T08:49:07.251Z,4.70
2023-05-31T08:51:38.082Z,4.20
2023-05-31T08:54:05.626Z,5.20
2023-05-31T08:56:32.970Z,5.00
2023-05-31T08:58:59.969Z,5.20
2023-05-31T09:01:29.902Z,4.20
2023-05-31T09:03:57.409Z,4.50
2023-05-31T09:06:24.794Z,4.70
2023-05-31T09:08:51.904Z,4.40
2023-05-31T09:11:18.978Z,4.50
2023-05-31T09:13:46.002Z,4.30
2023-05-31T09:16:13.052Z,4.20
2023-05-31T09:18:41.252Z,4.00
2023-05-31T09:21:12.896Z,4.00
2023-05-31T09:23:56.360Z,4.10
2023-05-31T09:26:24.624Z,4.10
2023-05-31T09:28:52.773Z,4.00
2023-05-31T09:31:19.947Z,4.40
2023-05-31T09:33:50.655Z,3.70
2023-05-31T09:36:26.441Z,3.60
2023-05-31T09:39:02.157Z,3.60
2023-05-31T09:41:29.459Z,3.50
2023-05-31T09:43:56.321Z,3.60
2023-05-31T09:46:24.459Z,3.40
2023-05-31T09:49:02.512Z,3.10
2023-05-31T09:51:30.182Z,3.10
2023-05-31T09:53:57.121Z,3.40
2023-05-31T09:56:26.640Z,3.30
2023-05-31T09:58:53.623Z,3.30
2023-05-31T10:01:21.144Z,3.90
2023-05-31T10:03:52.048Z,3.70
2023-05-31T10:06:19.780Z,3.20
2023-05-31T10:08:47.889Z,2.50
2023-05-31T10:11:28.273Z,2.80
2023-05-31T10:14:01.515Z,2.70
2023-05-31T10:16:30.306Z,3.10
2023-05-31T10:18:59.964Z,3.30
2023-05-31T10:21:27.407Z,3.30
2023-05-31T10:24:03.640Z,3.10
2023-05-31T10:26:42.252Z,2.60
2023-05-31T10:29:18.312Z,2.90
2023-05-31T10:31:52.062Z,3.00
2023-05-31T10:34:29.395Z,2.60
2023-05-31T10:36:57.310Z,3.00
2023-05-31T10:39:37.568Z,3.10
2023-05-31T10:42:28.252Z,2.80
2023-05-31T10:45:03.026Z,2.70
2023-05-31T10:47:41.319Z,2.80
2023-05-31T10:50:08.750Z,3.30
2023-05-31T10:52:35.557Z,3.50
2023-05-31T10:55:18.792Z,2.50
2023-05-31T10:57:50.789Z,2.80
2023-05-31T11:00:21.082Z,2.80
2023-05-31T11:02:52.686Z,2.20
2023-05-31T11:05:21.839Z,2.90
2023-05-31T11:07:50.059Z,2.50
2023-05-31T11:10:31.296Z,3.00
2023-05-31T11:13:02.022Z,2.90
2023-05-31T11:15:43.066Z,2.90
2023-05-31T11:18:11.425Z,3.10
2023-05-31T11:20:38.613Z,2.60
2023-05-31T11:23:25.308Z,3.00
2023-05-31T11:26:12.939Z,2.80
2023-05-31T11:28:56.943Z,2.40
2023-05-31T11:31:52.211Z,2.50
2023-05-31T11:34:20.062Z,3.00
2023-05-31T11:36:47.698Z,2.60
2023-05-31T11:39:14.484Z,2.70
2023-05-31T11:41:41.838Z,3.30
2023-05-31T11:44:12.123Z,2.70
2023-05-31T11:46:45.955Z,2.60
2023-05-31T11:49:13.100Z,3.00
2023-05-31T11:51:46.443Z,2.60
2023-05-31T11:56:42.771Z,2.60
2023-05-31T11:59:09.850Z,2.40
2023-05-31T12:01:37.986Z,2.70
2023-05-31T12:04:07.713Z,2.60
2023-05-31T12:06:34.944Z,2.50
2023-05-31T12:09:01.891Z,2.50
2023-05-31T12:11:29.251Z,2.40
2023-05-31T12:13:56.317Z,2.20
2023-05-31T12:16:23.275Z,3.10
2023-05-31T12:18:51.296Z,2.80
2023-05-31T12:21:18.789Z,3.30
2023-05-31T12:23:57.332Z,2.70
2023-05-31T12:26:29.860Z,2.90
2023-05-31T12:28:59.125Z,2.70
2023-05-31T12:31:27.036Z,2.70
2023-05-31T12:34:14.686Z,2.60
2023-05-31T12:36:43.152Z,2.90
2023-05-31T12:39:13.475Z,2.80
2023-05-31T12:41:45.262Z,2.60
2023-05-31T12:44:17.846Z,3.30
2023-05-31T12:46:46.037Z,3.00
2023-05-31T12:49:20.654Z,2.90
2023-05-31T12:51:47.752Z,2.90
2023-05-31T12:54:17.478Z,3.00
2023-05-31T12:56:44.576Z,2.70
2023-05-31T12:59:11.361Z,2.90
2023-05-31T13:01:39.657Z,2.70
2023-05-31T13:04:07.771Z,2.80
2023-05-31T13:06:35.127Z,2.70
2023-05-31T13:09:05.945Z,2.90
2023-05-31T13:11:35.245Z,2.60
2023-05-31T13:14:04.844Z,2.30
2023-05-31T13:16:33.091Z,2.20
2023-05-31T13:19:04.316Z,2.60
2023-05-31T13:21:33.079Z,2.50
2023-05-31T13:24:00.595Z,2.80
2023-05-31T13:26:31.243Z,2.70
2023-05-31T13:29:02.261Z,2.50
2023-05-31T13:31:29.257Z,2.30
2023-05-31T13:33:56.831Z,2.40
2023-05-31T13:36:27.429Z,2.60
2023-05-31T13:38:54.591Z,2.30
2023-05-31T13:41:24.629Z,2.50
2023-05-31T13:43:51.763Z,2.20
2023-05-31T13:46:20.024Z,2.20
2023-05-31T13:48:47.296Z,2.40
2023-05-31T13:51:14.369Z,2.60
2023-05-31T13:53:43.600Z,2.40
2023-05-31T13:56:13.464Z,2.50
2023-05-31T13:58:40.315Z,2.60
2023-05-31T14:01:08.884Z,2.50
2023-05-31T14:03:37.753Z,2.40
2023-05-31T14:06:05.576Z,3.00
2023-05-31T14:08:32.543Z,2.50
2023-05-31T14:10:59.920Z,2.80
2023-05-31T14:13:27.027Z,2.70
2023-05-31T14:15:57.466Z,2.50
2023-05-31T14:18:24.373Z,2.60
2023-05-31T14:20:54.137Z,2.70
2023-05-31T14:23:21.296Z,2.80
2023-05-31T14:25:53.788Z,2.50
2023-05-31T14:28:20.633Z,2.70
2023-05-31T14:30:47.610Z,2.30
2023-05-31T14:33:14.652Z,2.30
2023-05-31T14:35:42.071Z,2.30
2023-05-31T14:38:25.873Z,2.20
2023-05-31T14:40:55.928Z,2.80
2023-05-31T14:43:22.713Z,2.80
2023-05-31T14:45:52.641Z,2.20
2023-05-31T14:48:19.577Z,2.70
2023-05-31T14:50:46.356Z,2.10
2023-05-31T14:53:15.100Z,2.60
2023-05-31T14:55:41.992Z,2.40
2023-05-31T14:58:11.011Z,2.70
2023-05-31T15:00:39.031Z,2.80
2023-05-31T15:03:05.911Z,2.50
2023-05-31T15:05:35.009Z,3.10
2023-05-31T15:08:01.805Z,2.60
2023-05-31T15:10:28.701Z,2.40
2023-05-31T15:12:58.489Z,2.80
2023-05-31T15:15:25.498Z,2.70
2023-05-31T15:17:54.854Z,2.70
2023-05-31T15:20:21.921Z,2.40
2023-05-31T15:22:51.195Z,2.50
2023-05-31T15:25:20.935Z,2.60
2023-05-31T15:27:48.280Z,2.20
2023-05-31T15:30:15.454Z,2.50
2023-05-31T15:32:42.254Z,2.90
2023-05-31T15:35:09.528Z,2.40
2023-05-31T15:37:36.382Z,2.50
2023-05-31T15:40:03.590Z,2.60
2023-05-31T15:42:33.459Z,2.40
2023-05-31T15:45:00.737Z,2.40
2023-05-31T15:47:27.628Z,2.30
2023-05-31T15:50:00.861Z,2.20
2023-05-31T15:52:28.306Z,2.50
2023-05-31T15:54:55.194Z,2.60
2023-05-31T15:57:22.152Z,2.30
2023-05-31T15:59:49.499Z,2.10
2023-05-31T16:02:16.428Z,2.30
2023-05-31T16:04:43.261Z,3.00
2023-05-31T16:07:12.297Z,2.40
2023-05-31T16:09:39.333Z,2.70
2023-05-31T16:12:07.719Z,2.30
2023-05-31T16:14:34.778Z,2.80
2023-05-31T16:17:04.549Z,2.00
2023-05-31T16:19:31.629Z,2.00
2023-05-31T16:22:00.765Z,2.20
2023-05-31T16:24:30.135Z,2.70
2023-05-31T16:26:57.079Z,2.40
2023-05-31T16:29:27.095Z,2.60
2023-05-31T16:31:54.081Z,2.70
2023-05-31T16:34:21.018Z,2.60
2023-05-31T16:36:47.965Z,3.00
2023-05-31T16:39:15.653Z,2.60
2023-05-31T16:41:42.582Z,2.30
2023-05-31T16:44:09.584Z,2.80
2023-05-31T16:46:36.473Z,2.10
2023-05-31T16:49:04.492Z,2.90
2023-05-31T16:51:33.090Z,2.50
2023-05-31T16:54:00.105Z,2.80
2023-05-31T16:56:27.166Z,2.30
2023-05-31T16:58:53.930Z,2.60
2023-05-31T17:01:20.963Z,2.70
2023-05-31T17:03:49.338Z,2.90
2023-05-31T17:06:19.384Z,2.60
2023-05-31T17:08:46.217Z,2.90
2023-05-31T17:11:13.813Z,2.70
2023-05-31T17:13:43.511Z,2.70
2023-05-31T17:16:15.137Z,2.50
2023-05-31T17:18:47.526Z,2.70
2023-05-31T17:21:18.358Z,3.00
2023-05-31T17:23:45.278Z,2.50
2023-05-31T17:26:12.358Z,2.90
2023-05-31T17:28:40.093Z,2.50
2023-05-31T17:31:07.521Z,2.80
2023-05-31T17:33:34.348Z,2.50
2023-05-31T17:36:01.590Z,2.80
2023-05-31T17:38:28.683Z,2.70
2023-05-31T17:40:55.653Z,2.80
2023-05-31T17:43:25.125Z,3.60
2023-05-31T17:45:54.210Z,2.70
2023-05-31T17:48:22.588Z,2.80
2023-05-31T17:50:49.558Z,2.80
2023-05-31T17:53:16.600Z,2.40
2023-05-31T17:55:46.241Z,2.70
2023-05-31T17:58:14.835Z,2.50
2023-05-31T18:00:41.894Z,2.40
2023-05-31T18:03:08.816Z,2.10
2023-05-31T18:05:35.776Z,2.30
2023-05-31T18:08:02.606Z,2.40
2023-05-31T18:10:29.377Z,2.60
2023-05-31T18:12:58.454Z,2.20
2023-05-31T18:15:25.294Z,2.20
2023-05-31T18:17:52.511Z,2.10
2023-05-31T18:20:19.709Z,2.20
2023-05-31T18:22:46.656Z,1.90
2023-05-31T18:25:13.860Z,2.10
2023-05-31T18:27:40.915Z,2.00
2023-05-31T18:30:08.642Z,2.20
2023-05-31T18:32:35.748Z,2.00
2023-05-31T18:35:02.575Z,1.80
2023-05-31T18:37:29.498Z,1.80
2023-05-31T18:39:56.512Z,2.20
2023-05-31T18:42:23.324Z,1.90
2023-05-31T18:44:50.181Z,2.10
2023-05-31T18:47:17.146Z,2.10
2023-05-31T18:49:44.238Z,2.00
2023-05-31T18:52:11.594Z,1.70
2023-05-31T18:54:38.472Z,2.00
2023-05-31T18:57:06.975Z,1.80
2023-05-31T18:59:34.082Z,2.00
2023-05-31T19:02:01.560Z,1.80
2023-05-31T19:04:29.580Z,1.60
2023-05-31T19:06:59.023Z,1.90
2023-05-31T19:09:25.894Z,1.70
2023-05-31T19:11:54.908Z,1.80
2023-05-31T19:14:22.012Z,2.20
2023-05-31T19:16:48.994Z,1.90
2023-05-31T19:19:16.193Z,1.90
2023-05-31T19:21:43.306Z,1.70
2023-05-31T19:24:10.714Z,1.80
2023-05-31T19:26:40.963Z,2.10
2023-05-31T19:29:08.175Z,2.20
2023-05-31T19:31:35.237Z,2.10
2023-05-31T19:34:02.198Z,2.20
2023-05-31T19:36:30.185Z,2.50
2023-05-31T19:38:57.357Z,2.30
2023-05-31T19:41:24.220Z,2.10
2023-05-31T19:43:50.959Z,2.50
2023-05-31T19:46:26.844Z,2.60
2023-05-31T19:48:56.920Z,3.30
2023-05-31T19:51:24.990Z,2.30
2023-05-31T19:53:52.279Z,2.30
2023-05-31T19:56:19.379Z,2.60
2023-05-31T19:58:46.718Z,2.50
2023-05-31T20:01:16.031Z,2.30
2023-05-31T20:03:42.894Z,2.40
2023-05-31T20:06:09.983Z,2.50
2023-05-31T20:08:36.901Z,2.30
2023-05-31T20:11:03.891Z,2.00
2023-05-31T20:13:30.960Z,2.50
2023-05-31T20:15:57.759Z,2.10
2023-05-31T20:18:26.859Z,2.50
2023-05-31T20:20:53.771Z,2.80
2023-05-31T20:23:21.045Z,2.10
2023-05-31T20:25:47.930Z,2.30
2023-05-31T20:28:17.721Z,2.30
2023-05-31T20:30:44.566Z,2.90
2023-05-31T20:33:11.833Z,2.60
2023-05-31T20:35:41.541Z,2.80
2023-05-31T20:38:10.663Z,3.20
2023-05-31T20:40:37.598Z,3.00
2023-05-31T20:43:04.546Z,3.60
2023-05-31T20:45:31.724Z,3.10
2023-05-31T20:48:01.154Z,3.30
2023-05-31T20:50:34.135Z,3.00
2023-05-31T20:53:01.963Z,2.80
2023-05-31T20:55:29.332Z,3.40
2023-05-31T20:57:57.139Z,3.80
2023-05-31T21:00:27.562Z,3.30
2023-05-31T21:02:55.305Z,3.70
2023-05-31T21:05:22.272Z,4.30
2023-05-31T21:07:52.266Z,4.20
2023-05-31T21:10:19.142Z,5.20
2023-05-31T21:12:46.115Z,4.00
2023-05-31T21:15:13.016Z,4.40
2023-05-31T21:17:39.904Z,4.60
2023-05-31T21:20:07.850Z,5.20
2023-05-31T21:22:34.660Z,5.30
2023-05-31T21:25:01.439Z,5.30
2023-05-31T21:27:28.385Z,6.20
2023-05-31T21:29:57.602Z,5.50
2023-05-31T21:32:24.464Z,5.50
2023-05-31T21:34:51.587Z,5.90
2023-05-31T21:37:18.440Z,6.20
2023-05-31T21:39:45.481Z,5.90
2023-05-31T21:42:12.746Z,6.50
2023-05-31T21:44:39.615Z,6.20
2023-05-31T21:47:07.158Z,6.60
2023-05-31T21:49:35.585Z,6.70
2023-05-31T21:52:02.444Z,6.20
2023-05-31T21:54:31.779Z,6.60
2023-05-31T21:56:58.587Z,6.60
2023-05-31T21:59:27.869Z,7.00
2023-05-31T22:01:54.752Z,6.80
2023-05-31T22:04:23.875Z,6.80
2023-05-31T22:06:50.842Z,7.30
2023-05-31T22:09:17.785Z,7.20
2023-05-31T22:11:44.714Z,5.90
2023-05-31T22:14:11.551Z,7.40
2023-05-31T22:16:38.441Z,7.60
2023-05-31T22:19:07.871Z,7.10
2023-05-31T22:21:37.056Z,7.00
2023-05-31T22:24:04.362Z,7.10
2023-05-31T22:26:31.826Z,6.70
2023-05-31T22:29:01.411Z,7.70
2023-05-31T22:31:30.996Z,6.90
2023-05-31T22:33:58.070Z,7.40
2023-05-31T22:36:24.991Z,7.20
2023-05-31T22:38:51.803Z,7.10
2023-05-31T22:41:18.985Z,7.20
2023-05-31T22:43:45.912Z,6.50
2023-05-31T22:46:14.982Z,7.90
2023-05-31T22:48:42.091Z,7.10
2023-05-31T22:51:17.193Z,7.20
2023-05-31T22:53:44.509Z,6.30
2023-05-31T22:56:14.527Z,6.90
2023-05-31T22:58:41.463Z,6.60
2023-05-31T23:01:08.276Z,6.60
2023-05-31T23:03:35.463Z,6.90
2023-05-31T23:06:02.437Z,6.30
2023-05-31T23:08:31.577Z,6.50
2023-05-31T23:10:59.084Z,6.40
2023-05-31T23:13:26.829Z,7.30
2023-05-31T23:15:54.424Z,6.50
2023-05-31T23:18:21.879Z,6.90
2023-05-31T23:20:49.956Z,6.70
2023-05-31T23:23:17.027Z,6.40
2023-05-31T23:25:44.080Z,7.40
2023-05-31T23:28:12.459Z,8.10
2023-05-31T23:30:39.413Z,7.60
2023-05-31T23:33:06.697Z,7.10
2023-05-31T23:35:33.641Z,7.10
2023-05-31T23:38:00.662Z,6.20
2023-05-31T23:40:27.510Z,7.20
2023-05-31T23:42:54.865Z,7.70
2023-05-31T23:45:21.824Z,7.30
2023-05-31T23:47:48.700Z,8.10
2023-05-31T23:50:15.580Z,7.20
2023-05-31T23:52:42.496Z,7.70
2023-05-31T23:55:09.948Z,7.50
2023-05-31T23:57:36.751Z,6.20
